Harvey, West Virginia
Current Conditions -  °F | °C
As of 8:51 PM on Wednesday 17 Dec 2014 (Local Time) from KBKW Reporting Station
Overcast Overcast  
Wind Chill: -5°   Ceiling: 1600
Heat Index: -1°   Visibility: 10mi
Dew Point: -4°   Wind: 8mph
Humidity: 79%   Direction: 300°WNW
Pressure: 30.12"   Gusts: NA
Location:  37.9785°N, 81.1005°W
Report Text: KBKW 180151Z AUTO 30007KT 10SM OVC016 M01/M04 A3012 RMK AO2 SLP223 T10061039
Loading
Personal Weather Stations






























Interactive Weather Map New forecast layout! Learn more

10-Day Weather Forecast

Advertisements
Track Severe Weather on mobile